Flight Track Log - Related Links

Times and Time Zones

All times are in EDT time to prevent confusion due to time zone crossing. See the SWA1810 flight status page for this flight to view local times or setup timezone preferences in your user account.

Time Position Orientation Groundspeed Altitude Reporting Facility
EDT Latitude Longitude Course Direction KTS MPH feet Rate Location/Type
Thu 11:11:01 AM 39.1833 -76.7167 270° West 178 205 1,800  Level Potomac TRACON
Thu 11:12:01 AM 39.1833 -76.8000 270° West 219 252 4,200 2,900 Climbing Potomac TRACON
Thu 11:13:01 AM 39.1833 -76.8833 270° West 254 292 7,600 3,571 Climbing Potomac TRACON
Thu 11:15:26 AM 39.2061 -77.1156 277° West 281 323 16,400 3,395 Climbing Washington Center
Thu 11:16:26 AM 39.1694 -77.1953 239° Southwest 267 307 19,200 2,550 Climbing Washington Center
Thu 11:17:26 AM 39.1061 -77.2661 221° Southwest 276 318 21,500 2,200 Climbing Washington Center
Thu 11:18:26 AM 39.0856 -77.3886 258° West 293 337 23,600 2,500 Climbing Washington Center
Thu 11:19:26 AM 39.0669 -77.5083 259° West 328 377 26,500 1,700 Climbing Washington Center
Thu 11:20:26 AM 39.0506 -77.6203 259° West 334 384 27,000 1,250 Climbing Washington Center
Thu 11:21:26 AM 39.0317 -77.7428 259° West 339 390 29,000 1,500 Climbing Washington Center
Thu 11:22:26 AM 39.0147 -77.8811 261° West 353 406 30,000 500 Climbing Washington Center
Thu 11:23:26 AM 38.9936 -78.0033 258° West 359 413 30,000  Level Washington Center
Thu 11:24:26 AM 38.9742 -78.1256 258° West 359 413 30,000  Level Washington Center
Thu 11:25:26 AM 38.9611 -78.2478 262° West 354 407 30,000  Level Washington Center
Thu 11:26:26 AM 38.9647 -78.3681 272° West 354 407 30,000  Level Washington Center
Thu 11:27:26 AM 38.9700 -78.4939 273° West 348 400 30,000  Level Washington Center
Thu 11:28:26 AM 38.9733 -78.6167 272° West 348 400 30,000  Level Washington Center
Thu 11:29:26 AM 38.9764 -78.7425 272° West 348 400 30,000  Level Washington Center
Thu 11:30:26 AM 38.9814 -78.8681 273° West 348 400 30,000  Level Washington Center
Thu 11:31:26 AM 38.9842 -78.9911 272° West 348 400 30,000  Level Washington Center
Thu 11:32:26 AM 38.9869 -79.1169 272° West 348 400 30,000  Level Washington Center
Thu 11:33:26 AM 38.9894 -79.2397 272° West 348 400 30,000  Level Washington Center
Thu 11:34:26 AM 38.9939 -79.3628 273° West 348 400 30,000  Level Washington Center
Thu 11:35:26 AM 38.9964 -79.4858 272° West 348 400 30,000  Level Washington Center
Thu 11:36:26 AM 38.9986 -79.6036 271° West 355 409 30,000  Level Washington Center
Thu 11:37:26 AM 39.0003 -79.7372 271° West 355 409 30,000  Level Washington Center
Thu 11:39:40 AM 39.0206 -79.9961 276° West 344 396 30,000  Level Indianapolis Center
Thu 11:40:42 AM 39.0319 -80.1083 277° West 345 397 30,000  Level Indianapolis Center
Thu 11:41:44 AM 39.0475 -80.2558 278° West 346 398 30,000  Level Indianapolis Center
Thu 11:42:46 AM 39.0597 -80.3789 277° West 347 399 30,000  Level Indianapolis Center
Thu 11:43:47 AM 39.0714 -80.5011 277° West 346 398 30,000  Level Indianapolis Center
Thu 11:44:49 AM 39.0839 -80.6236 278° West 346 398 30,000  Level Indianapolis Center
Thu 11:45:51 AM 39.0953 -80.7469 277° West 348 400 30,000  Level Indianapolis Center
Thu 11:46:53 AM 39.1083 -80.8694 278° West 346 398 30,000  Level Indianapolis Center
Thu 11:47:55 AM 39.1200 -80.9931 277° West 349 402 30,000 -629 Level Indianapolis Center
Thu 11:48:57 AM 39.1450 -81.1339 283° West 339 390 28,700 -1,113 Descending Indianapolis Center
Thu 11:49:59 AM 39.1853 -81.2431 295° West 339 390 27,700 -976 Descending Indianapolis Center
Thu 11:51:00 AM 39.2261 -81.3517 296° West 339 390 26,700 -976 Descending Indianapolis Center
Thu 11:52:02 AM 39.2656 -81.4611 295° West 338 389 25,700 -968 Descending Indianapolis Center
Thu 11:53:04 AM 39.3053 -81.5647 296° West 325 374 24,700 -1,065 Descending Indianapolis Center
Thu 11:54:06 AM 39.3417 -81.6681 295° West 318 366 23,500 -1,694 Descending Indianapolis Center
Thu 11:55:08 AM 39.3864 -81.7864 296° West 306 352 21,200 -1,984 Descending Indianapolis Center
Thu 11:56:10 AM 39.4211 -81.8822 295° West 296 341 19,400 -1,645 Descending Indianapolis Center
Thu 11:57:12 AM 39.4533 -81.9756 294° West 286 329 17,800 -1,515 Descending Indianapolis Center
Thu 11:57:49 AM 39.4750 -82.0297 297° West 282 325 16,900 -1,355 Descending Indianapolis Center
Thu 11:58:14 AM 39.4875 -82.0656 294° West 279 321 16,400 -1,791 Descending Indianapolis Center
Thu 11:58:56 AM 39.5125 -82.1361 295° West 274 315 14,900 -1,935 Descending Indianapolis Center
Thu 11:59:16 AM 39.5222 -82.1639 294° West 270 311 14,400 -1,869 Descending Indianapolis Center
Thu 11:59:57 AM 39.5556 -82.2164 309° West 276 318 13,000 -1,967 Descending Indianapolis Center
Thu 12:00:17 PM 39.5772 -82.2347 327° Northwest 280 322 12,400 -1,610 Descending Indianapolis Center
Thu 12:01:19 PM 39.6425 -82.2958 324° Northwest 285 328 10,800 -1,353 Descending Indianapolis Center
Thu 12:01:59 PM 39.6822 -82.3350 323° Northwest 281 323 10,100 -871 Descending Indianapolis Center
Thu 12:02:21 PM 39.7044 -82.3553 325° Northwest 277 319 9,900 -1,100 Descending Indianapolis Center
Thu 12:02:59 PM 39.7392 -82.3925 321° Northwest 259 298 9,000 -1,258 Descending Indianapolis Center
Thu 12:03:23 PM 39.7586 -82.4078 329° Northwest 248 285 8,600 -1,091 Descending Indianapolis Center
Thu 12:03:54 PM 39.7867 -82.4353 323° Northwest 245 282 8,000 -1,258 Descending Indianapolis Center
Thu 12:04:25 PM 39.8139 -82.4600 325° Northwest 243 280 7,300 -1,343 Descending Indianapolis Center
Thu 12:05:01 PM 39.8497 -82.4964 322° Northwest 240 276 6,500 -1,161 Descending Indianapolis Center
Thu 12:05:27 PM 39.8675 -82.5117 327° Northwest 239 275 6,100 -982 Descending Indianapolis Center
Thu 12:05:56 PM 39.8953 -82.5367 325° Northwest 237 273 5,600 -774 Descending Indianapolis Center
Thu 12:06:29 PM 39.9283 -82.5692 323° Northwest 231 266 5,300 -462 Descending Indianapolis Center
Thu 12:07:14 PM 39.9600 -82.6036 320° Northwest 225 259 5,000 -590 Descending Indianapolis Center
Thu 12:07:30 PM 39.9750 -82.6161 327° Northwest 217 250 4,700 -977 Descending Indianapolis Center
Thu 12:07:57 PM 39.9808 -82.6383 289° West 210 242 4,300 -1,065 Descending Indianapolis Center
Thu 12:08:32 PM 39.9825 -82.6808 273° West 196 226 3,600 -985 Descending Indianapolis Center
Thu 12:09:04 PM 39.9844 -82.7122 275° West 168 193 3,200 -774 Descending Indianapolis Center
Thu 12:09:34 PM 39.9858 -82.7419 273° West 179 206 2,800 -783 Descending Indianapolis Center
Thu 12:10:36 PM 39.9883 -82.7922 274° West 156 180 2,000 -796 Descending Indianapolis Center
Thu 12:11:12 PM 39.9897 -82.8217 274° West 124 143 1,500 -677 Descending Indianapolis Center
Thu 12:11:38 PM 39.9911 -82.8372 277° West 136 157 1,300 -276 Descending Indianapolis Center
Thu 12:12:39 PM 39.9944 -82.8914 275° West 134 154 1,100 -197 Descending Indianapolis Center
Thu 12:14:00 PM 39.9980 -82.8920 352° North  Level Estimated
Thu 12:21:00 PM 39.9980 -82.8920 90° East  Level Estimated
Thu 12:22:00 PM 39.9980 -82.8920 90° East  Level Estimated

Login

Don't have an account? Register now (free) for customized features, flight alerts, and more!